sensor_id;sensor_type;location;lat;lon;timestamp;pressure;altitude;pressure_sealevel;temperature;humidity
27052;BME280;14601;49.358;8.256;2022-07-23T00:02:17;100300.00;;;23.67;57.96
27052;BME280;14601;49.358;8.256;2022-07-23T00:05:19;100292.63;;;23.54;58.47
27052;BME280;14601;49.358;8.256;2022-07-23T00:08:22;100290.53;;;23.50;58.28
27052;BME280;14601;49.358;8.256;2022-07-23T00:11:24;100279.22;;;23.46;58.26
27052;BME280;14601;49.358;8.256;2022-07-23T00:14:26;100273.75;;;23.53;57.65
27052;BME280;14601;49.358;8.256;2022-07-23T00:17:28;100274.59;;;23.53;57.42
27052;BME280;14601;49.358;8.256;2022-07-23T00:20:29;100286.31;;;23.60;57.07
27052;BME280;14601;49.358;8.256;2022-07-23T00:23:33;100297.03;;;23.62;56.72
27052;BME280;14601;49.358;8.256;2022-07-23T00:26:34;100301.63;;;23.61;56.60
27052;BME280;14601;49.358;8.256;2022-07-23T00:29:36;100295.78;;;23.58;56.58
27052;BME280;14601;49.358;8.256;2022-07-23T00:32:45;100293.47;;;23.55;56.91
27052;BME280;14601;49.358;8.256;2022-07-23T00:35:48;100302.50;;;23.62;56.68
27052;BME280;14601;49.358;8.256;2022-07-23T00:38:51;100291.78;;;23.60;56.71
27052;BME280;14601;49.358;8.256;2022-07-23T00:41:53;100287.19;;;23.54;57.06
27052;BME280;14601;49.358;8.256;2022-07-23T00:44:56;100290.97;;;23.47;57.47
27052;BME280;14601;49.358;8.256;2022-07-23T00:47:59;100299.16;;;23.47;57.78
27052;BME280;14601;49.358;8.256;2022-07-23T00:51:02;100303.13;;;23.44;57.86
27052;BME280;14601;49.358;8.256;2022-07-23T00:54:05;100306.72;;;23.31;58.42
27052;BME280;14601;49.358;8.256;2022-07-23T00:57:07;100314.47;;;23.28;58.73
27052;BME280;14601;49.358;8.256;2022-07-23T01:00:11;100311.13;;;23.19;58.88
27052;BME280;14601;49.358;8.256;2022-07-23T01:03:13;100310.47;;;23.24;58.68
27052;BME280;14601;49.358;8.256;2022-07-23T01:06:15;100310.69;;;23.35;58.10
27052;BME280;14601;49.358;8.256;2022-07-23T01:09:19;100309.44;;;23.38;57.83
27052;BME280;14601;49.358;8.256;2022-07-23T01:12:21;100312.78;;;23.40;57.80
27052;BME280;14601;49.358;8.256;2022-07-23T01:15:23;100301.69;;;23.35;57.97
27052;BME280;14601;49.358;8.256;2022-07-23T01:18:25;100301.03;;;23.33;57.79
27052;BME280;14601;49.358;8.256;2022-07-23T01:21:27;100291.81;;;23.27;57.67
27052;BME280;14601;49.358;8.256;2022-07-23T01:24:30;100292.88;;;23.19;58.15
27052;BME280;14601;49.358;8.256;2022-07-23T01:27:36;100290.13;;;23.13;58.62
27052;BME280;14601;49.358;8.256;2022-07-23T01:30:39;100287.63;;;23.11;58.62
27052;BME280;14601;49.358;8.256;2022-07-23T01:33:42;100290.56;;;23.16;58.74
27052;BME280;14601;49.358;8.256;2022-07-23T01:36:44;100292.66;;;23.08;59.20
27052;BME280;14601;49.358;8.256;2022-07-23T01:39:48;100293.91;;;23.12;58.96
27052;BME280;14601;49.358;8.256;2022-07-23T01:42:50;100288.25;;;23.07;59.12
27052;BME280;14601;49.358;8.256;2022-07-23T01:45:53;100271.28;;;23.05;59.12
27052;BME280;14601;49.358;8.256;2022-07-23T01:48:56;100293.31;;;23.10;59.17
27052;BME280;14601;49.358;8.256;2022-07-23T01:52:16;100293.91;;;23.12;59.32
27052;BME280;14601;49.358;8.256;2022-07-23T01:55:24;100305.03;;;23.04;59.80
27052;BME280;14601;49.358;8.256;2022-07-23T01:58:27;100291.00;;;22.93;60.15
27052;BME280;14601;49.358;8.256;2022-07-23T02:01:29;100282.13;;;22.78;60.79
27052;BME280;14601;49.358;8.256;2022-07-23T02:04:31;100286.94;;;22.76;60.89
27052;BME280;14601;49.358;8.256;2022-07-23T02:07:36;100275.22;;;22.76;60.90
27052;BME280;14601;49.358;8.256;2022-07-23T02:10:39;100289.66;;;22.76;61.08
27052;BME280;14601;49.358;8.256;2022-07-23T02:13:41;100280.44;;;22.70;61.43
27052;BME280;14601;49.358;8.256;2022-07-23T02:16:43;100267.66;;;22.71;61.78
27052;BME280;14601;49.358;8.256;2022-07-23T02:19:45;100273.53;;;22.68;62.01
27052;BME280;14601;49.358;8.256;2022-07-23T02:22:47;100271.63;;;22.68;62.07
27052;BME280;14601;49.358;8.256;2022-07-23T02:25:50;100273.34;;;22.69;62.21
27052;BME280;14601;49.358;8.256;2022-07-23T02:28:52;100251.13;;;22.66;62.14
27052;BME280;14601;49.358;8.256;2022-07-23T02:31:54;100281.28;;;22.58;62.34
27052;BME280;14601;49.358;8.256;2022-07-23T02:34:57;100282.09;;;22.58;62.31
27052;BME280;14601;49.358;8.256;2022-07-23T02:37:59;100294.25;;;22.62;61.88
27052;BME280;14601;49.358;8.256;2022-07-23T02:41:04;100293.44;;;22.62;61.95
27052;BME280;14601;49.358;8.256;2022-07-23T02:44:06;100298.88;;;22.62;61.71
27052;BME280;14601;49.358;8.256;2022-07-23T02:47:09;100302.03;;;22.65;61.14
27052;BME280;14601;49.358;8.256;2022-07-23T02:50:12;100312.69;;;22.67;61.64
27052;BME280;14601;49.358;8.256;2022-07-23T02:53:14;100330.31;;;22.71;61.49
27052;BME280;14601;49.358;8.256;2022-07-23T02:56:18;100334.06;;;22.63;62.15
27052;BME280;14601;49.358;8.256;2022-07-23T02:59:20;100334.25;;;22.68;62.14
27052;BME280;14601;49.358;8.256;2022-07-23T03:02:22;100343.06;;;22.64;62.51
27052;BME280;14601;49.358;8.256;2022-07-23T03:05:24;100344.88;;;22.43;63.42
27052;BME280;14601;49.358;8.256;2022-07-23T03:08:27;100337.94;;;22.34;63.75
27052;BME280;14601;49.358;8.256;2022-07-23T03:11:34;100369.06;;;22.18;64.39
27052;BME280;14601;49.358;8.256;2022-07-23T03:14:36;100375.63;;;22.03;65.30
27052;BME280;14601;49.358;8.256;2022-07-23T03:17:38;100368.53;;;22.02;65.32
27052;BME280;14601;49.358;8.256;2022-07-23T03:20:39;100362.34;;;22.14;64.52
27052;BME280;14601;49.358;8.256;2022-07-23T03:23:43;100364.94;;;22.29;63.76
27052;BME280;14601;49.358;8.256;2022-07-23T03:26:46;100351.75;;;22.33;63.93
27052;BME280;14601;49.358;8.256;2022-07-23T03:29:49;100338.75;;;22.28;64.75
27052;BME280;14601;49.358;8.256;2022-07-23T03:32:53;100343.50;;;22.13;65.78
27052;BME280;14601;49.358;8.256;2022-07-23T03:35:55;100336.94;;;22.07;66.11
27052;BME280;14601;49.358;8.256;2022-07-23T03:39:02;100312.19;;;21.95;66.78
27052;BME280;14601;49.358;8.256;2022-07-23T03:42:06;100329.09;;;21.84;67.36
27052;BME280;14601;49.358;8.256;2022-07-23T03:45:09;100330.16;;;21.90;67.71
27052;BME280;14601;49.358;8.256;2022-07-23T03:48:11;100359.25;;;21.89;67.53
27052;BME280;14601;49.358;8.256;2022-07-23T03:51:13;100399.94;;;21.76;68.16
27052;BME280;14601;49.358;8.256;2022-07-23T03:54:15;100394.34;;;21.84;68.14
27052;BME280;14601;49.358;8.256;2022-07-23T03:57:18;100413.47;;;21.97;69.36
27052;BME280;14601;49.358;8.256;2022-07-23T04:00:20;100397.31;;;21.89;72.77
27052;BME280;14601;49.358;8.256;2022-07-23T04:03:24;100391.72;;;21.69;74.79
27052;BME280;14601;49.358;8.256;2022-07-23T04:06:26;100395.94;;;21.72;76.46
27052;BME280;14601;49.358;8.256;2022-07-23T04:09:29;100416.88;;;21.71;77.21
27052;BME280;14601;49.358;8.256;2022-07-23T04:12:32;100413.28;;;21.71;76.67
27052;BME280;14601;49.358;8.256;2022-07-23T04:15:34;100412.34;;;21.85;76.90
27052;BME280;14601;49.358;8.256;2022-07-23T04:18:36;100419.56;;;21.29;80.36
27052;BME280;14601;49.358;8.256;2022-07-23T04:21:47;100413.44;;;21.20;81.87
27052;BME280;14601;49.358;8.256;2022-07-23T04:24:49;100415.81;;;21.30;81.97
27052;BME280;14601;49.358;8.256;2022-07-23T04:27:54;100420.31;;;21.37;80.41
27052;BME280;14601;49.358;8.256;2022-07-23T04:30:58;100431.09;;;21.31;80.41
27052;BME280;14601;49.358;8.256;2022-07-23T04:34:01;100444.41;;;21.26;81.72
27052;BME280;14601;49.358;8.256;2022-07-23T04:37:02;100457.41;;;21.09;85.13
27052;BME280;14601;49.358;8.256;2022-07-23T04:40:07;100465.03;;;20.98;85.69
27052;BME280;14601;49.358;8.256;2022-07-23T04:43:11;100468.16;;;20.81;88.14
27052;BME280;14601;49.358;8.256;2022-07-23T04:46:19;100450.94;;;20.73;90.90
27052;BME280;14601;49.358;8.256;2022-07-23T04:49:24;100462.81;;;20.72;89.00
27052;BME280;14601;49.358;8.256;2022-07-23T04:52:26;100475.00;;;20.62;89.88
27052;BME280;14601;49.358;8.256;2022-07-23T04:55:29;100472.06;;;20.78;88.02
27052;BME280;14601;49.358;8.256;2022-07-23T04:58:32;100464.84;;;20.85;86.09
27052;BME280;14601;49.358;8.256;2022-07-23T05:01:34;100469.22;;;21.01;86.66
27052;BME280;14601;49.358;8.256;2022-07-23T05:04:36;100492.06;;;20.56;90.17
27052;BME280;14601;49.358;8.256;2022-07-23T05:07:39;100488.56;;;20.62;91.46
27052;BME280;14601;49.358;8.256;2022-07-23T05:10:41;100494.81;;;20.47;91.44
27052;BME280;14601;49.358;8.256;2022-07-23T05:13:44;100461.06;;;20.35;90.39
27052;BME280;14601;49.358;8.256;2022-07-23T05:16:46;100456.16;;;20.45;91.75
27052;BME280;14601;49.358;8.256;2022-07-23T05:19:55;100444.97;;;20.48;92.12
27052;BME280;14601;49.358;8.256;2022-07-23T05:22:57;100448.41;;;20.28;92.67
27052;BME280;14601;49.358;8.256;2022-07-23T05:25:59;100443.28;;;20.18;95.96
27052;BME280;14601;49.358;8.256;2022-07-23T05:29:05;100435.59;;;20.36;95.43
27052;BME280;14601;49.358;8.256;2022-07-23T05:32:07;100449.88;;;20.00;97.06
27052;BME280;14601;49.358;8.256;2022-07-23T05:35:12;100451.38;;;19.88;98.98
27052;BME280;14601;49.358;8.256;2022-07-23T05:38:19;100454.00;;;19.96;99.99
27052;BME280;14601;49.358;8.256;2022-07-23T05:41:22;100463.56;;;20.07;99.42
27052;BME280;14601;49.358;8.256;2022-07-23T05:44:25;100458.22;;;20.29;97.14
27052;BME280;14601;49.358;8.256;2022-07-23T05:47:28;100437.28;;;20.22;97.35
27052;BME280;14601;49.358;8.256;2022-07-23T05:50:31;100448.06;;;20.60;94.26
27052;BME280;14601;49.358;8.256;2022-07-23T05:53:48;100451.75;;;20.89;93.78
27052;BME280;14601;49.358;8.256;2022-07-23T05:56:54;100470.59;;;20.46;93.25
27052;BME280;14601;49.358;8.256;2022-07-23T05:59:58;100482.03;;;20.56;96.30
27052;BME280;14601;49.358;8.256;2022-07-23T06:03:00;100494.09;;;20.68;93.95
27052;BME280;14601;49.358;8.256;2022-07-23T06:06:05;100507.63;;;20.98;92.94
27052;BME280;14601;49.358;8.256;2022-07-23T06:09:07;100525.16;;;20.66;95.31
27052;BME280;14601;49.358;8.256;2022-07-23T06:12:13;100530.59;;;20.95;95.19
27052;BME280;14601;49.358;8.256;2022-07-23T06:15:16;100532.63;;;20.93;94.99
27052;BME280;14601;49.358;8.256;2022-07-23T06:18:18;100541.44;;;20.66;94.99
27052;BME280;14601;49.358;8.256;2022-07-23T06:21:20;100533.53;;;20.41;95.61
27052;BME280;14601;49.358;8.256;2022-07-23T06:24:22;100528.06;;;20.49;95.01
27052;BME280;14601;49.358;8.256;2022-07-23T06:27:25;100515.34;;;20.65;93.94
27052;BME280;14601;49.358;8.256;2022-07-23T06:30:29;100516.75;;;20.90;92.61
27052;BME280;14601;49.358;8.256;2022-07-23T06:33:30;100503.97;;;21.06;88.58
27052;BME280;14601;49.358;8.256;2022-07-23T06:36:33;100499.22;;;20.93;88.73
27052;BME280;14601;49.358;8.256;2022-07-23T06:39:35;100497.84;;;20.67;89.84
27052;BME280;14601;49.358;8.256;2022-07-23T06:42:37;100499.34;;;20.55;90.82
27052;BME280;14601;49.358;8.256;2022-07-23T06:45:41;100491.69;;;20.59;90.56
27052;BME280;14601;49.358;8.256;2022-07-23T06:48:45;100490.53;;;20.68;90.32
27052;BME280;14601;49.358;8.256;2022-07-23T06:51:46;100506.84;;;20.68;91.30
27052;BME280;14601;49.358;8.256;2022-07-23T06:54:48;100508.28;;;21.00;87.98
27052;BME280;14601;49.358;8.256;2022-07-23T06:57:50;100508.38;;;21.43;86.25
27052;BME280;14601;49.358;8.256;2022-07-23T07:00:55;100507.72;;;21.62;85.22
27052;BME280;14601;49.358;8.256;2022-07-23T07:03:57;100524.75;;;21.92;83.18
27052;BME280;14601;49.358;8.256;2022-07-23T07:06:59;100532.50;;;21.95;80.09
27052;BME280;14601;49.358;8.256;2022-07-23T07:10:02;100528.88;;;22.10;80.92
27052;BME280;14601;49.358;8.256;2022-07-23T07:13:03;100538.13;;;22.43;79.30
27052;BME280;14601;49.358;8.256;2022-07-23T07:16:07;100550.25;;;22.69;78.09
27052;BME280;14601;49.358;8.256;2022-07-23T07:19:10;100560.28;;;22.68;75.64
27052;BME280;14601;49.358;8.256;2022-07-23T07:22:14;100569.56;;;22.18;79.36
27052;BME280;14601;49.358;8.256;2022-07-23T07:25:16;100566.53;;;22.90;75.24
27052;BME280;14601;49.358;8.256;2022-07-23T07:28:19;100575.59;;;23.04;72.63
27052;BME280;14601;49.358;8.256;2022-07-23T07:31:23;100573.81;;;24.06;68.34
27052;BME280;14601;49.358;8.256;2022-07-23T07:34:26;100577.66;;;23.43;70.68
27052;BME280;14601;49.358;8.256;2022-07-23T07:37:28;100574.94;;;23.43;70.98
27052;BME280;14601;49.358;8.256;2022-07-23T07:40:32;100563.56;;;23.27;71.34
27052;BME280;14601;49.358;8.256;2022-07-23T07:43:34;100565.25;;;23.41;71.43
27052;BME280;14601;49.358;8.256;2022-07-23T07:46:37;100571.50;;;23.28;71.54
27052;BME280;14601;49.358;8.256;2022-07-23T07:49:39;100576.09;;;23.21;75.58
27052;BME280;14601;49.358;8.256;2022-07-23T07:52:41;100577.56;;;24.78;71.23
27052;BME280;14601;49.358;8.256;2022-07-23T07:55:43;100585.38;;;23.95;69.29
27052;BME280;14601;49.358;8.256;2022-07-23T07:58:45;100582.44;;;24.03;69.94
27052;BME280;14601;49.358;8.256;2022-07-23T08:01:48;100582.00;;;24.06;69.62
27052;BME280;14601;49.358;8.256;2022-07-23T08:04:50;100585.69;;;26.26;61.56
27052;BME280;14601;49.358;8.256;2022-07-23T08:07:52;100583.03;;;24.84;67.80
27052;BME280;14601;49.358;8.256;2022-07-23T08:10:54;100594.25;;;25.73;64.11
27052;BME280;14601;49.358;8.256;2022-07-23T08:13:57;100584.56;;;29.56;51.75
27052;BME280;14601;49.358;8.256;2022-07-23T08:17:05;100585.28;;;29.80;47.71
27052;BME280;14601;49.358;8.256;2022-07-23T08:20:08;100589.78;;;31.26;44.76
27052;BME280;14601;49.358;8.256;2022-07-23T08:23:10;100584.28;;;31.48;42.85
27052;BME280;14601;49.358;8.256;2022-07-23T08:26:12;100586.41;;;32.60;40.27
27052;BME280;14601;49.358;8.256;2022-07-23T08:29:15;100580.47;;;32.41;40.87
27052;BME280;14601;49.358;8.256;2022-07-23T08:32:19;100575.75;;;32.79;39.26
27052;BME280;14601;49.358;8.256;2022-07-23T08:35:27;100577.25;;;33.85;37.54
27052;BME280;14601;49.358;8.256;2022-07-23T08:38:30;100576.63;;;34.95;35.51
27052;BME280;14601;49.358;8.256;2022-07-23T08:41:39;100582.69;;;33.44;37.30
27052;BME280;14601;49.358;8.256;2022-07-23T08:44:45;100587.06;;;32.77;38.92
27052;BME280;14601;49.358;8.256;2022-07-23T08:47:49;100591.44;;;30.84;42.83
27052;BME280;14601;49.358;8.256;2022-07-23T08:50:53;100595.22;;;31.21;43.39
27052;BME280;14601;49.358;8.256;2022-07-23T08:53:56;100584.75;;;34.76;35.53
27052;BME280;14601;49.358;8.256;2022-07-23T08:56:59;100585.34;;;35.43;34.66
27052;BME280;14601;49.358;8.256;2022-07-23T09:00:01;100590.44;;;29.08;45.92
27052;BME280;14601;49.358;8.256;2022-07-23T09:03:04;100604.50;;;27.27;52.71
27052;BME280;14601;49.358;8.256;2022-07-23T09:06:06;100585.81;;;30.95;43.49
27052;BME280;14601;49.358;8.256;2022-07-23T09:09:19;100585.97;;;32.78;39.08
27052;BME280;14601;49.358;8.256;2022-07-23T09:12:25;100584.75;;;33.89;37.08
27052;BME280;14601;49.358;8.256;2022-07-23T09:15:27;100591.03;;;35.17;34.49
27052;BME280;14601;49.358;8.256;2022-07-23T09:18:32;100583.66;;;34.11;36.06
27052;BME280;14601;49.358;8.256;2022-07-23T09:21:35;100581.25;;;32.73;38.98
27052;BME280;14601;49.358;8.256;2022-07-23T09:25:04;100582.16;;;32.89;38.52
27052;BME280;14601;49.358;8.256;2022-07-23T09:28:06;100576.44;;;32.59;39.11
27052;BME280;14601;49.358;8.256;2022-07-23T09:31:11;100577.81;;;33.87;36.94
27052;BME280;14601;49.358;8.256;2022-07-23T09:34:17;100587.19;;;29.51;44.54
27052;BME280;14601;49.358;8.256;2022-07-23T09:37:19;100586.41;;;31.41;42.06
27052;BME280;14601;49.358;8.256;2022-07-23T09:40:21;100590.94;;;30.53;43.25
27052;BME280;14601;49.358;8.256;2022-07-23T09:43:26;100581.19;;;30.28;45.06
27052;BME280;14601;49.358;8.256;2022-07-23T09:46:29;100589.84;;;31.32;42.02
27052;BME280;14601;49.358;8.256;2022-07-23T09:49:32;100584.50;;;31.69;40.62
27052;BME280;14601;49.358;8.256;2022-07-23T09:52:36;100587.66;;;29.60;46.06
27052;BME280;14601;49.358;8.256;2022-07-23T09:55:38;100581.28;;;30.89;43.40
27052;BME280;14601;49.358;8.256;2022-07-23T09:58:41;100569.22;;;33.73;37.03
27052;BME280;14601;49.358;8.256;2022-07-23T10:01:52;100583.50;;;30.53;43.14
27052;BME280;14601;49.358;8.256;2022-07-23T10:04:55;100579.81;;;30.65;42.62
27052;BME280;14601;49.358;8.256;2022-07-23T10:08:18;100588.09;;;31.69;41.38
27052;BME280;14601;49.358;8.256;2022-07-23T10:11:24;100579.13;;;30.91;43.32
27052;BME280;14601;49.358;8.256;2022-07-23T10:14:37;100583.00;;;30.57;43.70
27052;BME280;14601;49.358;8.256;2022-07-23T10:17:42;100571.25;;;31.44;42.02
27052;BME280;14601;49.358;8.256;2022-07-23T10:20:47;100567.13;;;31.46;42.00
27052;BME280;14601;49.358;8.256;2022-07-23T10:24:01;100576.28;;;32.01;40.93
27052;BME280;14601;49.358;8.256;2022-07-23T10:27:20;100575.84;;;32.52;40.12
27052;BME280;14601;49.358;8.256;2022-07-23T10:30:36;100567.94;;;30.81;43.88
27052;BME280;14601;49.358;8.256;2022-07-23T10:33:51;100572.81;;;30.07;44.66
27052;BME280;14601;49.358;8.256;2022-07-23T10:37:07;100574.03;;;29.53;46.95
27052;BME280;14601;49.358;8.256;2022-07-23T10:40:14;100572.06;;;28.62;48.44
27052;BME280;14601;49.358;8.256;2022-07-23T10:43:17;100565.25;;;28.41;48.76
27052;BME280;14601;49.358;8.256;2022-07-23T10:46:27;100571.72;;;28.58;47.83
27052;BME280;14601;49.358;8.256;2022-07-23T10:49:33;100567.97;;;28.64;48.24
27052;BME280;14601;49.358;8.256;2022-07-23T10:52:36;100570.88;;;27.80;49.78
27052;BME280;14601;49.358;8.256;2022-07-23T10:55:40;100566.53;;;28.26;49.89
27052;BME280;14601;49.358;8.256;2022-07-23T10:58:47;100565.91;;;28.01;49.43
27052;BME280;14601;49.358;8.256;2022-07-23T11:01:50;100572.16;;;28.78;47.84
27052;BME280;14601;49.358;8.256;2022-07-23T11:04:53;100582.59;;;27.88;49.72
27052;BME280;14601;49.358;8.256;2022-07-23T11:08:13;100574.34;;;28.65;48.43
27052;BME280;14601;49.358;8.256;2022-07-23T11:11:20;100564.66;;;28.39;47.88
27052;BME280;14601;49.358;8.256;2022-07-23T11:14:57;100566.28;;;29.10;46.78
27052;BME280;14601;49.358;8.256;2022-07-23T11:18:00;100570.16;;;28.62;48.62
27052;BME280;14601;49.358;8.256;2022-07-23T11:24:50;100554.94;;;29.06;48.56
27052;BME280;14601;49.358;8.256;2022-07-23T11:27:52;100555.81;;;29.81;46.06
27052;BME280;14601;49.358;8.256;2022-07-23T11:30:54;100550.72;;;30.18;44.68
27052;BME280;14601;49.358;8.256;2022-07-23T11:34:24;100542.41;;;30.52;44.07
27052;BME280;14601;49.358;8.256;2022-07-23T11:37:34;100552.16;;;29.47;45.68
27052;BME280;14601;49.358;8.256;2022-07-23T11:40:38;100541.31;;;29.86;44.77
27052;BME280;14601;49.358;8.256;2022-07-23T11:43:40;100544.50;;;30.11;44.15
27052;BME280;14601;49.358;8.256;2022-07-23T11:46:54;100542.75;;;30.05;44.16
27052;BME280;14601;49.358;8.256;2022-07-23T11:49:57;100538.94;;;30.23;43.72
27052;BME280;14601;49.358;8.256;2022-07-23T11:53:00;100535.31;;;30.56;42.63
27052;BME280;14601;49.358;8.256;2022-07-23T11:56:05;100528.88;;;30.89;42.09
27052;BME280;14601;49.358;8.256;2022-07-23T11:59:08;100533.09;;;30.36;42.54
27052;BME280;14601;49.358;8.256;2022-07-23T12:02:11;100518.47;;;30.74;41.97
27052;BME280;14601;49.358;8.256;2022-07-23T12:05:14;100527.41;;;30.43;42.81
27052;BME280;14601;49.358;8.256;2022-07-23T12:08:16;100516.97;;;30.84;42.14
27052;BME280;14601;49.358;8.256;2022-07-23T12:11:19;100512.94;;;31.18;41.18
27052;BME280;14601;49.358;8.256;2022-07-23T12:14:21;100524.16;;;30.68;42.07
27052;BME280;14601;49.358;8.256;2022-07-23T12:17:27;100517.81;;;28.45;47.13
27052;BME280;14601;49.358;8.256;2022-07-23T12:20:31;100524.84;;;29.17;45.63
27052;BME280;14601;49.358;8.256;2022-07-23T12:23:34;100530.44;;;28.81;46.87
27052;BME280;14601;49.358;8.256;2022-07-23T12:26:39;100523.75;;;28.19;48.83
27052;BME280;14601;49.358;8.256;2022-07-23T12:29:41;100517.44;;;28.65;47.20
27052;BME280;14601;49.358;8.256;2022-07-23T12:32:47;100512.47;;;28.91;46.52
27052;BME280;14601;49.358;8.256;2022-07-23T12:35:51;100509.41;;;29.27;45.23
27052;BME280;14601;49.358;8.256;2022-07-23T12:38:54;100505.69;;;29.62;44.27
27052;BME280;14601;49.358;8.256;2022-07-23T12:41:57;100510.19;;;29.68;44.70
27052;BME280;14601;49.358;8.256;2022-07-23T12:45:04;100514.03;;;30.01;43.51
27052;BME280;14601;49.358;8.256;2022-07-23T12:48:07;100506.84;;;30.00;43.91
27052;BME280;14601;49.358;8.256;2022-07-23T12:51:14;100510.16;;;30.52;42.29
27052;BME280;14601;49.358;8.256;2022-07-23T12:54:17;100514.78;;;29.96;43.23
27052;BME280;14601;49.358;8.256;2022-07-23T12:57:46;100518.81;;;29.03;46.66
27052;BME280;14601;49.358;8.256;2022-07-23T13:00:53;100521.69;;;27.91;50.00
27052;BME280;14601;49.358;8.256;2022-07-23T13:04:00;100534.97;;;28.05;49.66
27052;BME280;14601;49.358;8.256;2022-07-23T13:07:02;100539.75;;;27.98;50.17
27052;BME280;14601;49.358;8.256;2022-07-23T13:10:05;100532.13;;;27.70;50.63
27052;BME280;14601;49.358;8.256;2022-07-23T13:13:09;100522.44;;;28.68;48.43
27052;BME280;14601;49.358;8.256;2022-07-23T13:16:12;100530.91;;;29.02;46.27
27052;BME280;14601;49.358;8.256;2022-07-23T13:19:14;100529.56;;;29.33;45.45
27052;BME280;14601;49.358;8.256;2022-07-23T13:22:16;100529.41;;;29.51;44.93
27052;BME280;14601;49.358;8.256;2022-07-23T13:25:18;100531.03;;;29.64;44.45
27052;BME280;14601;49.358;8.256;2022-07-23T13:28:22;100525.72;;;29.17;45.92
27052;BME280;14601;49.358;8.256;2022-07-23T13:31:24;100523.53;;;29.19;45.96
27052;BME280;14601;49.358;8.256;2022-07-23T13:34:26;100526.78;;;29.73;44.48
27052;BME280;14601;49.358;8.256;2022-07-23T13:37:28;100528.63;;;28.99;46.32
27052;BME280;14601;49.358;8.256;2022-07-23T13:40:30;100527.81;;;29.55;44.86
27052;BME280;14601;49.358;8.256;2022-07-23T13:43:33;100522.38;;;29.72;44.11
27052;BME280;14601;49.358;8.256;2022-07-23T13:46:35;100526.72;;;29.85;43.92
27052;BME280;14601;49.358;8.256;2022-07-23T13:49:37;100523.81;;;29.92;43.58
27052;BME280;14601;49.358;8.256;2022-07-23T13:52:39;100525.53;;;29.81;43.44
27052;BME280;14601;49.358;8.256;2022-07-23T13:55:41;100522.72;;;28.55;45.33
27052;BME280;14601;49.358;8.256;2022-07-23T13:58:51;100519.34;;;29.17;45.68
27052;BME280;14601;49.358;8.256;2022-07-23T14:01:54;100516.72;;;29.96;43.24
27052;BME280;14601;49.358;8.256;2022-07-23T14:04:56;100524.44;;;29.65;43.60
27052;BME280;14601;49.358;8.256;2022-07-23T14:07:58;100514.03;;;29.84;43.45
27052;BME280;14601;49.358;8.256;2022-07-23T14:11:01;100516.63;;;29.74;43.39
27052;BME280;14601;49.358;8.256;2022-07-23T14:14:04;100522.38;;;29.72;43.48
27052;BME280;14601;49.358;8.256;2022-07-23T14:17:06;100515.56;;;29.18;44.65
27052;BME280;14601;49.358;8.256;2022-07-23T14:20:09;100511.19;;;29.62;44.33
27052;BME280;14601;49.358;8.256;2022-07-23T14:23:10;100514.41;;;29.30;44.21
27052;BME280;14601;49.358;8.256;2022-07-23T14:26:12;100506.88;;;28.86;44.83
27052;BME280;14601;49.358;8.256;2022-07-23T14:29:16;100503.88;;;29.56;43.72
27052;BME280;14601;49.358;8.256;2022-07-23T14:32:18;100506.88;;;29.83;43.46
27052;BME280;14601;49.358;8.256;2022-07-23T14:35:19;100507.56;;;29.04;44.61
27052;BME280;14601;49.358;8.256;2022-07-23T14:38:22;100499.66;;;29.37;44.17
27052;BME280;14601;49.358;8.256;2022-07-23T14:41:24;100496.78;;;30.22;42.73
27052;BME280;14601;49.358;8.256;2022-07-23T14:44:28;100505.84;;;29.72;43.06
27052;BME280;14601;49.358;8.256;2022-07-23T14:47:30;100488.28;;;30.46;41.28
27052;BME280;14601;49.358;8.256;2022-07-23T14:50:32;100495.38;;;30.42;41.35
27052;BME280;14601;49.358;8.256;2022-07-23T14:53:34;100489.81;;;30.37;40.81
27052;BME280;14601;49.358;8.256;2022-07-23T14:56:36;100492.78;;;30.52;40.74
27052;BME280;14601;49.358;8.256;2022-07-23T14:59:39;100497.91;;;29.93;40.84
27052;BME280;14601;49.358;8.256;2022-07-23T15:02:42;100480.91;;;29.79;41.63
27052;BME280;14601;49.358;8.256;2022-07-23T15:05:45;100486.41;;;29.96;41.49
27052;BME280;14601;49.358;8.256;2022-07-23T15:08:47;100493.09;;;30.00;40.73
27052;BME280;14601;49.358;8.256;2022-07-23T15:11:48;100485.56;;;30.12;41.02
27052;BME280;14601;49.358;8.256;2022-07-23T15:14:52;100485.16;;;30.20;40.55
27052;BME280;14601;49.358;8.256;2022-07-23T15:17:54;100479.63;;;29.24;41.38
27052;BME280;14601;49.358;8.256;2022-07-23T15:20:55;100474.34;;;28.94;41.97
27052;BME280;14601;49.358;8.256;2022-07-23T15:23:58;100474.81;;;29.03;42.62
27052;BME280;14601;49.358;8.256;2022-07-23T15:27:00;100478.13;;;27.94;44.81
27052;BME280;14601;49.358;8.256;2022-07-23T15:30:06;100480.78;;;29.00;42.71
27052;BME280;14601;49.358;8.256;2022-07-23T15:33:08;100483.78;;;29.55;41.26
27052;BME280;14601;49.358;8.256;2022-07-23T15:36:10;100471.13;;;29.71;40.68
27052;BME280;14601;49.358;8.256;2022-07-23T15:39:12;100465.97;;;29.58;41.48
27052;BME280;14601;49.358;8.256;2022-07-23T15:42:14;100467.97;;;29.63;41.02
27052;BME280;14601;49.358;8.256;2022-07-23T15:45:18;100463.66;;;29.38;41.08
27052;BME280;14601;49.358;8.256;2022-07-23T15:48:20;100469.78;;;29.28;41.54
27052;BME280;14601;49.358;8.256;2022-07-23T15:51:22;100467.38;;;29.61;41.04
27052;BME280;14601;49.358;8.256;2022-07-23T15:54:25;100464.66;;;29.49;41.03
27052;BME280;14601;49.358;8.256;2022-07-23T15:57:27;100462.13;;;29.59;40.58
27052;BME280;14601;49.358;8.256;2022-07-23T16:00:30;100454.00;;;29.07;41.96
27052;BME280;14601;49.358;8.256;2022-07-23T16:03:35;100459.97;;;29.95;40.14
27052;BME280;14601;49.358;8.256;2022-07-23T16:06:37;100450.75;;;30.23;38.57